Time;durP1;ratioP1;P1;durP2;ratioP2;P2;SDS_P1;SDS_P2;PMS_P1;PMS_P2;Temp;Humidity;BMP_temperature;BMP_pressure;BME280_temperature;BME280_humidity;BME280_pressure;Samples;Min_cycle;Max_cycle;Signal;HPM_P1;HPM_P2
2022/02/03 00:00:45;;;;;;;32.17;16.25;;;8.80;85.30;;;;;;9178091;19;20018;-67
2022/02/03 00:03:56;;;;;;;34.30;17.38;;;8.80;85.30;;;;;;9176001;19;20025;-67
2022/02/03 00:07:07;;;;;;;33.20;16.05;;;8.90;85.40;;;;;;9177441;19;20019;-67
2022/02/03 00:24:07;;;;;;;30.60;14.68;;;9.10;85.70;;;;;;9177354;19;20354;-67
2022/02/03 00:27:34;;;;;;;28.75;15.43;;;9.10;85.80;;;;;;9177379;19;20052;-67
2022/02/03 00:31:00;;;;;;;29.20;15.55;;;9.10;85.80;;;;;;9176840;19;20018;-67
2022/02/03 00:34:12;;;;;;;29.65;15.15;;;9.20;85.80;;;;;;9176715;19;20023;-67
2022/02/03 00:37:30;;;;;;;30.55;15.25;;;9.20;85.90;;;;;;9176111;19;20022;-66
2022/02/03 00:50:36;;;;;;;32.35;16.10;;;9.30;86.10;;;;;;9175884;19;20396;-67
2022/02/03 00:53:42;;;;;;;32.03;16.67;;;9.40;86.20;;;;;;9176502;19;20022;-67
2022/02/03 00:56:52;;;;;;;28.38;15.10;;;9.40;86.20;;;;;;9176389;19;20049;-67
2022/02/03 01:00:07;;;;;;;35.13;16.60;;;9.40;86.40;;;;;;9175852;19;20029;-67
2022/02/03 01:03:16;;;;;;;28.48;15.55;;;9.40;86.50;;;;;;9176126;19;20768;-67
2022/02/03 01:06:22;;;;;;;31.60;16.25;;;9.50;86.50;;;;;;9175395;19;20018;-67
2022/02/03 01:09:29;;;;;;;31.88;16.15;;;9.50;86.50;;;;;;9175240;19;20045;-67
2022/02/03 01:12:43;;;;;;;32.50;15.88;;;9.50;86.60;;;;;;9176376;19;20018;-67
2022/02/03 01:16:00;;;;;;;26.15;14.80;;;9.60;86.60;;;;;;9174953;19;20118;-67
2022/02/03 01:45:48;;;;;;;23.58;14.65;;;9.70;86.80;;;;;;9183866;19;20010;-66
2022/02/03 01:49:13;;;;;;;25.63;15.40;;;9.70;86.80;;;;;;9180688;19;20021;-66
2022/02/03 01:52:29;;;;;;;24.92;15.18;;;9.80;87.00;;;;;;9181375;19;20518;-66
2022/02/03 01:55:34;;;;;;;24.02;14.65;;;9.80;87.00;;;;;;9181406;19;20495;-66
2022/02/03 01:58:46;;;;;;;27.63;15.65;;;9.80;87.00;;;;;;9182867;19;20037;-66
2022/02/03 02:01:53;;;;;;;25.92;15.70;;;9.80;87.10;;;;;;9181564;19;20025;-66
2022/02/03 02:05:08;;;;;;;25.63;16.30;;;9.90;87.10;;;;;;9182850;19;20026;-66
2022/02/03 02:08:24;;;;;;;26.55;15.60;;;9.90;87.20;;;;;;9180262;19;20021;-66
2022/02/03 02:11:48;;;;;;;24.88;15.80;;;9.90;87.30;;;;;;9182002;19;20026;-66
2022/02/03 02:38:43;;;;;;;27.80;17.30;;;10.00;87.30;;;;;;9181493;19;20025;-67
2022/02/03 02:45:24;;;;;;;26.25;17.92;;;10.00;87.40;;;;;;9178056;19;20080;-67
2022/02/03 02:48:58;;;;;;;24.20;16.25;;;10.00;87.40;;;;;;9180476;19;20038;-67
2022/02/03 02:52:09;;;;;;;;;;;10.10;87.60;;;;;;9179395;19;20018;-66
2022/02/03 02:55:30;;;;;;;24.95;16.52;;;10.00;87.40;;;;;;9181669;19;20261;-67
2022/02/03 02:59:23;;;;;;;28.95;17.38;;;10.00;87.30;;;;;;9182020;19;20018;-67
2022/02/03 03:29:45;;;;;;;27.40;17.10;;;10.10;87.60;;;;;;9181351;19;20006;-67
2022/02/03 03:33:08;;;;;;;26.52;18.15;;;10.10;87.60;;;;;;9182105;19;20419;-66
2022/02/03 03:36:17;;;;;;;28.08;18.45;;;10.10;87.60;;;;;;9179054;19;20013;-67
2022/02/03 03:39:39;;;;;;;27.75;18.45;;;10.10;87.60;;;;;;9176810;19;20019;-66
2022/02/03 03:42:47;;;;;;;27.17;18.17;;;10.10;87.70;;;;;;9176609;19;20684;-67
2022/02/03 03:45:56;;;;;;;30.08;18.30;;;10.00;87.60;;;;;;9177351;19;20022;-67
2022/02/03 03:49:08;;;;;;;29.45;19.08;;;10.10;87.70;;;;;;9178361;19;20021;-66
2022/02/03 03:52:19;;;;;;;30.33;18.40;;;10.00;87.70;;;;;;9181307;19;20602;-66
2022/02/03 03:55:40;;;;;;;36.88;18.60;;;10.10;87.80;;;;;;9177638;19;20022;-66
2022/02/03 03:59:09;;;;;;;29.27;17.50;;;10.10;87.70;;;;;;9178270;19;20044;-67
2022/02/03 04:33:52;;;;;;;30.67;20.98;;;10.10;87.90;;;;;;9174500;19;20522;-66
2022/02/03 04:41:01;;;;;;;35.65;21.00;;;10.10;88.00;;;;;;9176760;19;20385;-67
2022/02/03 04:44:49;;;;;;;33.90;21.52;;;10.10;88.00;;;;;;9177151;19;20018;-66
2022/02/03 05:03:23;;;;;;;35.17;22.33;;;10.10;88.00;;;;;;9175376;19;20025;-67
2022/02/03 05:07:25;;;;;;;34.05;22.27;;;10.10;88.10;;;;;;9177523;19;20471;-67
2022/02/03 05:11:17;;;;;;;37.40;22.77;;;10.10;88.00;;;;;;9177061;19;20019;-67
2022/02/03 05:19:05;;;;;;;43.25;23.25;;;10.10;88.00;;;;;;9171261;19;20031;-67
2022/02/03 05:23:20;;;;;;;39.22;23.15;;;10.10;88.00;;;;;;9176259;19;20029;-66
2022/02/03 05:31:55;;;;;;;25.65;16.23;;;10.00;88.10;;;;;;9175550;19;20014;-66
2022/02/03 05:49:28;;;;;;;39.13;19.88;;;10.00;88.10;;;;;;9176489;19;20021;-67
2022/02/03 06:03:49;;;;;;;31.10;17.30;;;10.00;88.00;;;;;;9166377;19;20112;-66
2022/02/03 06:14:10;;;;;;;26.50;15.32;;;9.90;88.00;;;;;;9180865;19;20006;-67
2022/02/03 06:17:30;;;;;;;25.35;13.77;;;9.90;87.90;;;;;;9177569;19;20007;-66
2022/02/03 06:24:30;;;;;;;26.42;13.77;;;9.90;87.90;;;;;;9184211;19;20063;-66
2022/02/03 06:27:50;;;;;;;21.08;14.18;;;9.80;87.80;;;;;;9185083;19;20015;-66
2022/02/03 06:31:10;;;;;;;28.05;15.02;;;9.80;87.90;;;;;;9183457;19;20634;-66
2022/02/03 06:34:18;;;;;;;27.42;14.88;;;9.80;87.90;;;;;;9177781;19;20007;-66
2022/02/03 06:37:33;;;;;;;28.27;14.80;;;9.80;87.90;;;;;;9178703;19;20026;-67
2022/02/03 06:40:45;;;;;;;28.73;14.00;;;9.80;87.90;;;;;;9179045;19;20027;-67
2022/02/03 06:43:50;;;;;;;23.65;13.32;;;9.80;88.50;;;;;;9182961;19;20468;-67
2022/02/03 06:47:03;;;;;;;20.63;12.18;;;9.80;88.00;;;;;;9181722;19;20540;-67
2022/02/03 06:50:15;;;;;;;23.27;13.20;;;9.80;87.90;;;;;;9176151;19;20039;-67
2022/02/03 06:53:26;;;;;;;19.50;12.27;;;9.80;87.90;;;;;;9174849;19;20027;-66
2022/02/03 06:56:42;;;;;;;24.85;10.98;;;9.80;87.90;;;;;;9176840;19;20427;-67
2022/02/03 07:00:06;;;;;;;16.08;10.70;;;9.80;87.90;;;;;;9176606;19;20055;-67
2022/02/03 07:03:33;;;;;;;16.52;9.43;;;9.80;87.80;;;;;;9180038;19;20022;-67
2022/02/03 07:06:59;;;;;;;15.88;8.18;;;9.80;87.80;;;;;;9181702;19;20029;-68
2022/02/03 07:10:08;;;;;;;14.68;7.82;;;9.70;87.70;;;;;;9180575;19;20025;-67
2022/02/03 07:13:14;;;;;;;14.15;8.55;;;9.70;87.70;;;;;;9170783;19;20021;-67
2022/02/03 07:16:19;;;;;;;12.82;9.07;;;9.70;87.70;;;;;;9174687;19;20025;-67
2022/02/03 07:19:24;;;;;;;17.30;10.30;;;9.70;87.60;;;;;;9169849;19;20018;-67
2022/02/03 07:22:30;;;;;;;17.38;10.32;;;9.70;87.70;;;;;;9174835;19;20460;-67
2022/02/03 07:25:38;;;;;;;16.08;10.20;;;9.70;87.60;;;;;;9173889;19;20030;-67
2022/02/03 07:28:42;;;;;;;18.23;10.57;;;9.70;87.70;;;;;;9171322;19;20188;-67
2022/02/03 07:31:48;;;;;;;15.25;9.75;;;9.70;87.60;;;;;;9169692;19;20392;-67
2022/02/03 07:35:11;;;;;;;11.10;8.07;;;9.70;87.60;;;;;;9170027;19;20030;-67
2022/02/03 07:38:21;;;;;;;15.43;10.27;;;9.60;87.50;;;;;;9179348;19;20038;-67
2022/02/03 07:41:29;;;;;;;12.90;8.98;;;9.60;87.50;;;;;;9180274;19;20356;-67
2022/02/03 07:44:34;;;;;;;14.25;9.38;;;9.60;87.50;;;;;;9180139;19;20052;-67
2022/02/03 07:47:45;;;;;;;17.90;9.35;;;9.60;87.50;;;;;;9177769;19;20050;-66
2022/02/03 07:50:50;;;;;;;17.55;9.60;;;9.60;87.50;;;;;;9176720;19;20014;-67
2022/02/03 07:53:55;;;;;;;17.85;9.23;;;9.60;87.40;;;;;;9175779;19;20582;-67
2022/02/03 07:57:03;;;;;;;15.20;9.52;;;9.60;87.50;;;;;;9177815;19;20018;-66
2022/02/03 08:00:10;;;;;;;18.83;9.38;;;9.60;87.40;;;;;;9176990;19;20678;-67
2022/02/03 08:03:38;;;;;;;13.95;8.40;;;9.60;87.40;;;;;;9179786;19;20019;-67
2022/02/03 08:06:46;;;;;;;15.75;8.77;;;9.60;87.50;;;;;;9176318;19;20038;-67
2022/02/03 08:09:57;;;;;;;12.82;8.45;;;9.60;87.40;;;;;;9175606;19;20022;-66
2022/02/03 08:13:07;;;;;;;13.32;8.13;;;9.60;87.30;;;;;;9179474;19;19998;-67
2022/02/03 08:16:17;;;;;;;13.20;8.27;;;9.60;87.30;;;;;;9179326;19;20459;-67
2022/02/03 08:19:27;;;;;;;12.95;8.00;;;9.60;87.90;;;;;;9173115;19;20484;-67
2022/02/03 08:22:37;;;;;;;11.82;7.50;;;9.50;87.20;;;;;;9174982;19;20014;-67
2022/02/03 08:25:48;;;;;;;13.15;6.90;;;9.50;87.30;;;;;;9175061;19;20484;-67
2022/02/03 08:29:12;;;;;;;14.35;6.15;;;9.50;87.20;;;;;;9175590;19;20052;-66
2022/02/03 08:32:21;;;;;;;7.78;5.72;;;9.50;87.20;;;;;;9175163;19;20015;-66
2022/02/03 08:35:34;;;;;;;11.85;5.35;;;9.50;87.20;;;;;;9180075;19;20460;-69
2022/02/03 08:38:46;;;;;;;7.88;5.57;;;9.50;87.20;;;;;;9178556;19;20022;-67
2022/02/03 08:41:51;;;;;;;7.05;4.93;;;9.50;87.20;;;;;;9175080;19;20049;-67
2022/02/03 08:44:59;;;;;;;11.63;5.28;;;9.50;87.20;;;;;;9176319;19;20019;-67
2022/02/03 08:48:04;;;;;;;11.07;5.22;;;9.50;87.20;;;;;;9177007;19;20587;-67
2022/02/03 08:51:12;;;;;;;8.13;4.70;;;9.50;87.10;;;;;;9178051;19;20021;-66
2022/02/03 08:54:17;;;;;;;8.82;4.10;;;9.50;87.20;;;;;;9176860;19;20375;-67
2022/02/03 08:57:34;;;;;;;8.82;3.80;;;9.50;87.10;;;;;;9175364;19;20014;-66
2022/02/03 09:28:10;;;;;;;10.63;3.97;;;9.50;87.10;;;;;;9172826;19;20018;-67
2022/02/03 09:41:24;;;;;;;10.23;4.63;;;9.50;86.90;;;;;;9176011;19;20018;-67
2022/02/03 09:57:59;;;;;;;9.48;5.15;;;9.60;86.80;;;;;;9179088;19;20023;-67
2022/02/03 10:01:09;;;;;;;7.95;4.45;;;9.70;86.80;;;;;;9176177;19;20056;-67
2022/02/03 10:04:16;;;;;;;7.60;4.25;;;9.70;86.70;;;;;;9183375;19;20019;-67
2022/02/03 10:07:30;;;;;;;8.45;4.60;;;9.70;86.60;;;;;;9177944;19;20469;-67
2022/02/03 10:10:35;;;;;;;13.80;5.80;;;9.70;86.50;;;;;;9175825;19;20026;-67
2022/02/03 10:13:44;;;;;;;8.85;5.15;;;9.70;86.40;;;;;;9179638;19;20560;-67
2022/02/03 10:16:49;;;;;;;7.38;4.90;;;9.70;86.30;;;;;;9178175;19;20659;-67
2022/02/03 10:20:02;;;;;;;13.27;4.82;;;9.70;86.30;;;;;;9181346;19;20015;-67
2022/02/03 10:23:14;;;;;;;9.35;4.72;;;9.70;86.20;;;;;;9178179;19;20065;-67
2022/02/03 10:26:19;;;;;;;8.35;4.78;;;9.70;86.20;;;;;;9177850;19;20029;-67
2022/02/03 10:29:31;;;;;;;8.95;4.70;;;9.70;86.20;;;;;;9180233;19;20018;-67
2022/02/03 10:32:40;;;;;;;9.43;5.05;;;9.70;86.20;;;;;;9179158;19;20019;-67
2022/02/03 10:35:49;;;;;;;7.57;5.25;;;9.70;86.20;;;;;;9182826;19;20018;-67
2022/02/03 10:39:20;;;;;;;11.70;4.95;;;9.70;86.20;;;;;;9178488;19;20575;-67
2022/02/03 10:42:51;;;;;;;14.40;5.80;;;9.70;86.20;;;;;;9179101;19;20018;-74
2022/02/03 10:49:42;;;;;;;10.88;6.03;;;9.70;86.30;;;;;;9181885;19;20645;-74
2022/02/03 10:56:18;;;;;;;12.52;5.47;;;9.70;86.20;;;;;;9182170;19;20479;-73
2022/02/03 10:59:53;;;;;;;10.02;5.63;;;9.70;86.20;;;;;;9183245;19;20056;-74
2022/02/03 11:03:16;;;;;;;10.35;4.68;;;9.70;86.20;;;;;;9183511;19;20495;-73
2022/02/03 11:06:27;;;;;;;10.55;5.30;;;9.80;86.20;;;;;;9183324;19;20007;-73
2022/02/03 11:13:16;;;;;;;8.45;4.32;;;9.80;86.00;;;;;;9180820;19;20016;-73
2022/02/03 11:16:22;;;;;;;7.47;4.60;;;9.80;86.00;;;;;;9182832;19;20011;-74
2022/02/03 11:19:31;;;;;;;5.65;3.83;;;9.80;85.90;;;;;;9180536;19;20019;-74
2022/02/03 11:22:47;;;;;;;8.60;4.50;;;9.80;86.00;;;;;;9183473;19;20480;-73
2022/02/03 11:26:06;;;;;;;7.20;4.55;;;9.80;86.00;;;;;;9184005;19;20025;-73
2022/02/03 11:29:49;;;;;;;6.63;4.10;;;9.70;85.90;;;;;;9179733;19;20029;-74
2022/02/03 11:50:09;;;;;;;9.88;4.75;;;9.80;85.90;;;;;;9179624;19;20011;-73
2022/02/03 12:04:08;;;;;;;7.27;4.30;;;9.80;86.10;;;;;;9173008;19;20468;-73
2022/02/03 12:14:15;;;;;;;7.03;3.92;;;9.80;86.00;;;;;;9177512;19;20025;-74
2022/02/03 12:17:32;;;;;;;7.47;4.00;;;9.70;86.00;;;;;;9174605;19;20463;-73
2022/02/03 12:20:49;;;;;;;9.02;4.32;;;9.70;85.90;;;;;;9178858;19;20042;-74
2022/02/03 12:24:15;;;;;;;9.50;4.70;;;9.70;85.90;;;;;;9174656;19;20025;-73
2022/02/03 12:27:33;;;;;;;9.15;4.35;;;9.70;85.90;;;;;;9175685;19;20022;-74
2022/02/03 12:30:53;;;;;;;11.93;4.43;;;9.70;86.00;;;;;;9177933;19;20057;-73
2022/02/03 12:40:52;;;;;;;9.02;4.10;;;9.70;85.90;;;;;;9176121;19;20022;-74
2022/02/03 12:43:58;;;;;;;9.20;4.32;;;9.70;86.00;;;;;;9173572;19;20026;-74
2022/02/03 12:47:05;;;;;;;6.07;3.78;;;9.70;85.90;;;;;;9173980;19;20077;-74
2022/02/03 12:50:14;;;;;;;8.90;4.03;;;9.70;85.90;;;;;;9174657;19;20495;-73
2022/02/03 12:53:23;;;;;;;10.10;4.47;;;9.70;85.90;;;;;;9173762;19;20018;-73
2022/02/03 12:56:29;;;;;;;8.48;3.80;;;9.70;85.90;;;;;;9172438;19;20014;-73
2022/02/03 12:59:40;;;;;;;6.20;3.85;;;9.70;85.80;;;;;;9176005;19;20051;-74
2022/02/03 13:02:53;;;;;;;7.07;3.60;;;9.70;85.80;;;;;;9174963;19;20014;-74
2022/02/03 13:06:01;;;;;;;11.35;3.90;;;9.70;85.80;;;;;;9172233;19;20017;-74
2022/02/03 13:09:10;;;;;;;10.73;4.38;;;9.60;85.80;;;;;;9174713;19;20557;-74
2022/02/03 13:12:20;;;;;;;6.53;3.70;;;9.60;85.80;;;;;;9175094;19;20476;-74
2022/02/03 13:15:40;;;;;;;10.30;4.97;;;9.60;85.80;;;;;;9176668;19;20482;-73
2022/02/03 13:18:50;;;;;;;8.30;4.55;;;9.60;85.80;;;;;;9173651;19;20015;-74
2022/02/03 13:22:10;;;;;;;12.52;4.75;;;9.60;85.90;;;;;;9171410;19;20025;-73
2022/02/03 13:25:23;;;;;;;11.93;4.40;;;9.60;85.80;;;;;;9170927;19;20011;-75
2022/02/03 13:28:37;;;;;;;13.02;5.70;;;9.60;85.80;;;;;;9173456;19;20037;-73
2022/02/03 13:31:51;;;;;;;21.83;5.15;;;9.60;85.90;;;;;;9173890;19;20025;-73
2022/02/03 13:35:01;;;;;;;6.20;3.83;;;9.60;85.80;;;;;;9176398;19;20015;-73
2022/02/03 13:38:19;;;;;;;10.00;6.03;;;9.60;85.90;;;;;;9175039;19;20010;-73
2022/02/03 13:41:35;;;;;;;13.07;5.40;;;9.60;85.90;;;;;;9173003;19;20879;-74
2022/02/03 13:44:40;;;;;;;10.75;5.30;;;9.60;86.00;;;;;;9171896;19;20465;-73
2022/02/03 13:47:48;;;;;;;14.32;5.45;;;9.60;85.90;;;;;;9174570;19;20018;-73
2022/02/03 13:50:56;;;;;;;9.70;5.80;;;9.60;86.50;;;;;;9172345;19;20634;-73
2022/02/03 13:54:10;;;;;;;13.43;5.78;;;9.50;85.90;;;;;;9173628;19;20015;-73
2022/02/03 14:10:51;;;;;;;13.60;6.07;;;9.40;85.90;;;;;;9172255;19;20010;-74
2022/02/03 14:14:27;;;;;;;16.55;6.10;;;9.50;86.00;;;;;;9173798;19;20028;-73
2022/02/03 14:18:03;;;;;;;14.88;5.60;;;9.40;86.00;;;;;;9170840;19;20707;-73
2022/02/03 14:21:14;;;;;;;9.18;5.40;;;9.40;86.00;;;;;;9171150;19;20019;-74
2022/02/03 14:27:44;;;;;;;11.25;5.35;;;9.40;86.10;;;;;;9171892;19;20048;-74
2022/02/03 14:30:55;;;;;;;9.93;5.80;;;9.30;86.10;;;;;;9176495;19;20014;-74
2022/02/03 14:34:02;;;;;;;8.73;5.50;;;9.30;86.10;;;;;;9180440;19;20701;-74
2022/02/03 14:37:14;;;;;;;14.60;6.20;;;9.40;86.20;;;;;;9184987;19;20345;-74
2022/02/03 14:40:35;;;;;;;12.63;5.80;;;9.30;86.10;;;;;;9186837;19;20035;-74
2022/02/03 14:43:41;;;;;;;12.38;5.65;;;9.40;86.20;;;;;;9183589;19;20041;-73
2022/02/03 14:47:06;;;;;;;11.77;5.15;;;9.40;86.10;;;;;;9181667;19;20344;-74
2022/02/03 14:50:13;;;;;;;16.50;6.43;;;9.40;86.10;;;;;;9186516;19;20022;-75
2022/02/03 14:53:28;;;;;;;10.30;5.35;;;9.40;86.10;;;;;;9182367;19;20806;-74
2022/02/03 14:59:50;;;;;;;9.50;5.18;;;9.30;86.00;;;;;;9184426;19;20039;-75
2022/02/03 15:02:59;;;;;;;8.90;4.90;;;9.40;86.10;;;;;;9180586;19;20378;-74
2022/02/03 15:06:09;;;;;;;9.95;5.22;;;9.30;86.10;;;;;;9179834;19;20018;-74
2022/02/03 15:09:31;;;;;;;7.78;4.47;;;9.30;86.10;;;;;;9182198;19;20048;-74
2022/02/03 15:12:58;;;;;;;20.00;5.30;;;9.30;86.10;;;;;;9180430;19;20025;-73
2022/02/03 15:16:03;;;;;;;9.32;4.85;;;9.30;86.10;;;;;;9181610;19;20014;-74
2022/02/03 15:19:11;;;;;;;12.90;4.55;;;9.20;86.00;;;;;;9181184;19;20078;-74
2022/02/03 15:22:16;;;;;;;9.45;4.88;;;9.20;86.10;;;;;;9178876;19;20023;-74
2022/02/03 15:25:22;;;;;;;7.65;5.00;;;9.20;86.20;;;;;;9179923;19;20006;-74
2022/02/03 15:28:27;;;;;;;13.57;5.13;;;9.20;86.20;;;;;;9184483;19;20011;-74
2022/02/03 15:31:33;;;;;;;6.47;4.72;;;9.20;86.20;;;;;;9183430;19;20022;-74
2022/02/03 15:34:41;;;;;;;10.35;5.53;;;9.20;86.30;;;;;;9182259;19;20838;-74
2022/02/03 15:37:49;;;;;;;7.93;5.22;;;9.20;86.30;;;;;;9178503;19;20342;-74
2022/02/03 15:40:56;;;;;;;9.40;4.90;;;9.20;86.30;;;;;;9179178;19;20479;-74
2022/02/03 15:44:01;;;;;;;9.20;4.93;;;9.20;86.40;;;;;;9179435;19;20015;-74
2022/02/03 15:47:17;;;;;;;9.57;5.32;;;9.10;86.40;;;;;;9179779;19;20563;-74
2022/02/03 15:57:37;;;;;;;8.05;5.50;;;9.10;86.50;;;;;;9177689;19;20022;-74
2022/02/03 16:04:20;;;;;;;9.30;4.80;;;9.00;86.50;;;;;;9177417;19;20007;-74
2022/02/03 16:17:27;;;;;;;13.07;5.57;;;9.00;86.60;;;;;;9171316;19;20014;-74
2022/02/03 16:20:37;;;;;;;10.18;5.72;;;9.00;86.60;;;;;;9170307;19;20010;-73
2022/02/03 16:53:45;;;;;;;10.47;6.17;;;8.80;86.90;;;;;;9175290;19;20476;-73
2022/02/03 16:56:59;;;;;;;13.60;8.10;;;8.80;86.80;;;;;;9178979;19;20899;-74
2022/02/03 17:00:07;;;;;;;9.85;7.00;;;8.70;86.90;;;;;;9181515;19;20042;-74
2022/02/03 17:03:32;;;;;;;9.50;6.60;;;8.80;87.00;;;;;;9179465;19;20021;-74
2022/02/03 17:06:37;;;;;;;13.50;6.47;;;8.80;87.00;;;;;;9177710;19;20018;-74
2022/02/03 17:09:42;;;;;;;12.40;7.30;;;8.80;87.00;;;;;;9177525;19;20010;-74
2022/02/03 17:12:50;;;;;;;14.25;6.43;;;8.70;87.00;;;;;;9173261;19;20400;-67
2022/02/03 17:15:55;;;;;;;11.68;6.90;;;8.70;87.00;;;;;;9173537;19;20018;-67
2022/02/03 17:19:00;;;;;;;12.43;7.30;;;8.70;87.00;;;;;;9168250;19;20654;-67
2022/02/03 17:22:05;;;;;;;11.52;7.47;;;8.70;87.10;;;;;;9168184;19;20027;-67
2022/02/03 17:25:16;;;;;;;12.23;7.90;;;8.70;87.10;;;;;;9169509;19;20026;-67
2022/02/03 17:28:30;;;;;;;11.68;7.80;;;8.70;87.20;;;;;;9170742;19;20015;-68
2022/02/03 17:31:50;;;;;;;13.32;8.23;;;8.70;87.10;;;;;;9173528;19;20014;-67
2022/02/03 18:08:46;;;;;;;14.55;10.02;;;8.70;87.40;;;;;;9171206;19;20026;-68
2022/02/03 18:17:05;;;;;;;18.10;10.50;;;8.70;87.40;;;;;;9174793;19;20029;-67
2022/02/03 18:35:49;;;;;;;19.83;10.93;;;8.60;87.40;;;;;;9171771;19;20027;-67
2022/02/03 18:52:19;;;;;;;16.35;10.82;;;8.60;87.60;;;;;;9173407;19;20527;-67
2022/02/03 18:55:30;;;;;;;;;;;8.60;87.60;;;;;;9170328;19;20026;-67
2022/02/03 18:58:44;;;;;;;22.15;11.35;;;8.60;87.70;;;;;;9168976;19;19922;-67
2022/02/03 19:02:13;;;;;;;14.68;11.18;;;8.60;87.60;;;;;;9170657;19;20669;-67
2022/02/03 20:05:46;;;;;;;21.27;14.20;;;8.60;88.00;;;;;;9165579;19;20050;-67
2022/02/03 20:08:56;;;;;;;22.63;14.00;;;8.60;88.00;;;;;;9170917;19;20581;-67
2022/02/03 20:12:01;;;;;;;24.60;14.73;;;8.50;87.90;;;;;;9170278;19;20480;-67
2022/02/03 20:15:10;;;;;;;19.25;14.35;;;8.50;88.00;;;;;;9170543;19;20026;-67
2022/02/03 20:18:17;;;;;;;24.33;14.48;;;8.50;88.00;;;;;;9167263;19;20022;-67
2022/02/03 20:21:24;;;;;;;24.23;14.80;;;8.50;88.00;;;;;;9170715;19;20018;-67
2022/02/03 20:24:29;;;;;;;20.23;14.82;;;8.50;88.00;;;;;;9168813;19;20019;-67
2022/02/03 20:27:34;;;;;;;22.85;16.33;;;8.50;88.00;;;;;;9167297;19;20056;-67
2022/02/03 20:30:42;;;;;;;23.60;15.55;;;8.50;88.60;;;;;;9165102;19;20014;-67
2022/02/03 20:33:47;;;;;;;23.42;16.67;;;8.50;88.10;;;;;;9168814;19;20019;-67
2022/02/03 20:36:52;;;;;;;22.38;15.90;;;8.50;88.10;;;;;;9172632;19;20027;-67
2022/02/03 20:39:57;;;;;;;26.73;16.67;;;8.50;88.10;;;;;;9168866;19;20521;-67
2022/02/03 20:43:02;;;;;;;24.38;15.02;;;8.50;88.10;;;;;;9169985;19;20014;-67
2022/02/03 20:46:09;;;;;;;23.35;15.98;;;8.50;88.10;;;;;;9171227;19;20035;-67
2022/02/03 20:49:15;;;;;;;24.35;16.20;;;8.50;88.20;;;;;;9166713;19;20014;-67
2022/02/03 20:52:20;;;;;;;24.70;16.65;;;8.50;88.20;;;;;;9171840;19;20025;-67
2022/02/03 20:55:25;;;;;;;24.95;15.80;;;8.50;88.20;;;;;;9168631;19;20022;-67
2022/02/03 20:58:30;;;;;;;25.20;16.55;;;8.50;88.20;;;;;;9169065;19;20967;-67
2022/02/03 21:01:39;;;;;;;25.30;16.50;;;8.50;88.20;;;;;;9168896;19;20030;-67
2022/02/03 21:05:05;;;;;;;27.80;17.48;;;8.50;88.30;;;;;;9171280;19;20018;-67
2022/02/03 21:08:10;;;;;;;24.52;16.42;;;8.50;88.20;;;;;;9171593;19;20026;-67
2022/02/03 21:11:16;;;;;;;21.30;15.77;;;8.50;88.20;;;;;;9167211;19;20396;-67
2022/02/03 21:14:21;;;;;;;26.30;17.73;;;8.50;88.20;;;;;;9167718;19;20019;-67
2022/02/03 21:17:30;;;;;;;25.88;17.65;;;8.50;88.30;;;;;;9164853;19;20156;-67
2022/02/03 21:20:37;;;;;;;26.92;18.17;;;8.50;88.20;;;;;;9170825;19;20026;-67
2022/02/03 21:23:43;;;;;;;26.50;17.42;;;8.50;88.20;;;;;;9168639;19;20395;-67
2022/02/03 21:26:48;;;;;;;29.98;16.92;;;8.50;88.30;;;;;;9167536;19;20596;-67
2022/02/03 21:29:53;;;;;;;26.60;18.08;;;8.50;88.30;;;;;;9166281;19;20082;-67
2022/02/03 21:33:00;;;;;;;25.05;17.42;;;8.50;88.30;;;;;;9168140;19;20029;-67
2022/02/03 21:36:11;;;;;;;27.77;18.23;;;8.50;88.30;;;;;;9169919;19;20011;-67
2022/02/03 21:39:16;;;;;;;34.17;19.05;;;8.50;88.30;;;;;;9172891;19;20029;-67
2022/02/03 21:42:21;;;;;;;24.70;17.05;;;8.50;88.30;;;;;;9172563;19;20939;-67
2022/02/03 21:45:27;;;;;;;28.98;19.17;;;8.50;88.30;;;;;;9174237;19;20022;-67
2022/02/03 21:48:35;;;;;;;26.67;17.45;;;8.50;88.30;;;;;;9177240;19;20046;-68
2022/02/03 21:51:45;;;;;;;30.05;18.42;;;8.50;88.40;;;;;;9180455;19;20574;-67
2022/02/03 21:54:51;;;;;;;31.63;19.70;;;8.50;88.30;;;;;;9180416;19;20359;-67
2022/02/03 21:57:56;;;;;;;25.00;18.48;;;8.50;88.30;;;;;;9176018;19;20023;-67
2022/02/03 22:01:02;;;;;;;25.95;18.20;;;8.50;88.30;;;;;;9176649;19;20014;-68
2022/02/03 22:04:10;;;;;;;30.13;19.67;;;8.50;88.40;;;;;;9175551;19;20106;-67
2022/02/03 22:07:15;;;;;;;24.95;17.58;;;8.50;88.40;;;;;;9178286;19;20112;-67
2022/02/03 22:10:23;;;;;;;26.27;17.15;;;8.50;88.30;;;;;;9176839;19;20026;-67
2022/02/03 22:13:34;;;;;;;25.77;18.17;;;8.50;88.40;;;;;;9174069;19;20018;-67
2022/02/03 22:16:39;;;;;;;29.45;18.02;;;8.50;88.30;;;;;;9173973;19;21021;-67
2022/02/03 22:19:53;;;;;;;25.95;17.95;;;8.50;88.30;;;;;;9175108;19;20022;-67
2022/02/03 22:43:04;;;;;;;25.85;17.60;;;8.40;88.40;;;;;;9175804;19;20026;-67
2022/02/03 22:46:15;;;;;;;26.52;17.35;;;8.40;88.40;;;;;;9177984;19;20480;-67
2022/02/03 22:49:22;;;;;;;28.67;18.35;;;8.40;88.40;;;;;;9177768;19;20044;-67
2022/02/03 22:52:31;;;;;;;24.95;17.45;;;8.40;88.40;;;;;;9175360;19;20377;-67
2022/02/03 22:55:38;;;;;;;26.83;17.48;;;8.40;88.50;;;;;;9175102;19;20019;-67
2022/02/03 22:59:10;;;;;;;25.48;17.10;;;8.50;88.50;;;;;;9177686;19;20025;-67
2022/02/03 23:02:18;;;;;;;27.40;17.63;;;8.40;88.50;;;;;;9177909;19;20366;-67
2022/02/03 23:05:23;;;;;;;27.25;17.27;;;8.50;88.50;;;;;;9177945;19;20072;-67
2022/02/03 23:08:39;;;;;;;25.35;17.63;;;8.50;88.60;;;;;;9176487;19;20014;-67
2022/02/03 23:18:51;;;;;;;31.30;19.52;;;8.50;88.50;;;;;;9169008;19;20022;-67
2022/02/03 23:22:08;;;;;;;26.88;17.55;;;8.50;88.50;;;;;;9177347;19;20093;-66
2022/02/03 23:25:20;;;;;;;30.63;18.35;;;8.50;88.60;;;;;;9178708;19;20022;-67
2022/02/03 23:28:30;;;;;;;26.10;18.65;;;8.50;88.60;;;;;;9177668;19;20510;-67
2022/02/03 23:31:41;;;;;;;24.92;17.55;;;8.50;88.50;;;;;;9177955;19;20018;-67
2022/02/03 23:34:54;;;;;;;28.30;18.15;;;8.50;88.50;;;;;;9179921;19;20483;-66
2022/02/03 23:38:07;;;;;;;26.45;18.55;;;8.40;88.50;;;;;;9175628;19;20033;-66
2022/02/03 23:41:55;;;;;;;28.35;19.33;;;8.50;88.50;;;;;;9177811;19;20480;-67
2022/02/03 23:44:53;;;;;;;26.85;18.25;;;8.40;88.50;;;;;;9175721;19;20395;-67
2022/02/03 23:51:43;;;;;;;28.80;18.92;;;8.40;88.50;;;;;;9176182;19;20019;-67
